Terminal Aerodrome Forecast
Issued by NWS

Home | Current Version | Previous Version | Text Only | Print | Product List | Glossary On
Versions: 1 2 3 4 5 6 7 8 9 10 11 12 13 14 15 16 17 18 19 20 21 22 23 24 25 26 27 28 29 30 31 32 33 34 35 36 37 38 39 40 41 42 43 44 45 46 47 48 49 50
000
FTUS43 KMKX 051149 AAA
TAFUES
TAF AMD
KUES 051149Z 0512/0612 13004KT 1/4SM FG OVC001
     FM051300 13004KT 1SM BR OVC002
     FM051400 13004KT 3SM BR OVC003
     FM051500 13005KT 5SM BR OVC005
     FM051600 14006KT P6SM SCT008 BKN040
     FM051700 18005KT P6SM SCT030 BKN120
     FM060600 19004KT 5SM BR SCT120=

USA.gov is the U.S. government's official web portal to all federal, state and local government web resources and services.